createdAt,value
2022-09-28T00:01:18.269Z,74.28
2022-09-28T00:03:46.698Z,74.89
2022-09-28T00:06:16.991Z,76.23
2022-09-28T00:08:45.313Z,77.32
2022-09-28T00:11:17.640Z,76.89
2022-09-28T00:13:51.493Z,78.06
2022-09-28T00:16:21.602Z,79.39
2022-09-28T00:18:51.350Z,80.96
2022-09-28T00:21:22.745Z,80.48
2022-09-28T00:24:11.376Z,81.48
2022-09-28T00:26:42.280Z,81.40
2022-09-28T00:29:17.761Z,82.09
2022-09-28T00:31:46.405Z,83.04
2022-09-28T00:34:15.060Z,81.29
2022-09-28T00:36:46.396Z,81.30
2022-09-28T00:39:16.884Z,81.27
2022-09-28T00:41:46.484Z,81.46
2022-09-28T00:44:47.747Z,82.31
2022-09-28T00:47:25.576Z,80.83
2022-09-28T00:49:59.261Z,80.81
2022-09-28T00:52:33.197Z,78.76
2022-09-28T00:55:03.445Z,79.81
2022-09-28T00:57:32.607Z,78.01
2022-09-28T01:00:03.339Z,78.30
2022-09-28T01:02:32.465Z,77.17
2022-09-28T01:05:02.190Z,77.84
2022-09-28T01:07:32.867Z,77.45
2022-09-28T01:10:01.135Z,78.43
2022-09-28T01:12:29.660Z,78.47
2022-09-28T01:15:00.588Z,77.50
2022-09-28T01:17:39.975Z,78.73
2022-09-28T01:20:34.990Z,77.49
2022-09-28T01:23:30.181Z,78.72
2022-09-28T01:26:28.375Z,77.22
2022-09-28T01:29:02.221Z,76.09
2022-09-28T01:31:34.192Z,76.79
2022-09-28T01:34:14.089Z,76.90
2022-09-28T01:36:47.481Z,77.10
2022-09-28T01:39:22.138Z,74.32
2022-09-28T01:41:53.750Z,75.20
2022-09-28T01:44:25.540Z,73.40
2022-09-28T01:46:55.398Z,75.49
2022-09-28T01:49:31.037Z,74.22
2022-09-28T01:52:03.673Z,74.75
2022-09-28T01:54:37.798Z,74.34
2022-09-28T01:57:13.648Z,73.42
2022-09-28T01:59:49.266Z,74.29
2022-09-28T02:02:20.359Z,74.91
2022-09-28T02:04:53.060Z,75.71
2022-09-28T02:07:25.670Z,76.51
2022-09-28T02:09:57.949Z,76.10
2022-09-28T02:12:34.262Z,75.79
2022-09-28T02:15:13.585Z,75.88
2022-09-28T02:17:42.224Z,75.15
2022-09-28T02:20:13.963Z,76.11
2022-09-28T02:22:46.618Z,75.32
2022-09-28T02:25:22.165Z,75.64
2022-09-28T02:27:56.541Z,76.23
2022-09-28T02:30:24.659Z,75.81
2022-09-28T02:32:56.059Z,75.05
2022-09-28T02:35:25.142Z,74.97
2022-09-28T02:37:53.652Z,73.95
2022-09-28T02:40:24.958Z,73.46
2022-09-28T02:43:03.349Z,74.75
2022-09-28T02:45:42.081Z,74.96
2022-09-28T02:48:41.540Z,74.71
2022-09-28T02:51:22.342Z,74.38
2022-09-28T02:54:02.918Z,73.98
2022-09-28T02:56:54.756Z,74.82
2022-09-28T02:59:41.602Z,73.78
2022-09-28T03:02:18.024Z,74.12
2022-09-28T03:04:57.183Z,73.99
2022-09-28T03:07:33.874Z,73.82
2022-09-28T03:10:07.008Z,74.46
2022-09-28T03:12:36.082Z,73.41
2022-09-28T03:15:10.743Z,74.96
2022-09-28T03:17:39.840Z,74.90
2022-09-28T03:20:11.139Z,73.92
2022-09-28T03:22:39.620Z,75.35
2022-09-28T03:25:09.190Z,75.01
2022-09-28T03:27:39.581Z,74.81
2022-09-28T03:30:12.033Z,75.01
2022-09-28T03:32:43.510Z,74.49
2022-09-28T03:35:12.234Z,75.69
2022-09-28T03:37:40.404Z,75.48
2022-09-28T03:40:09.271Z,75.33
2022-09-28T03:42:38.737Z,75.58
2022-09-28T03:45:11.782Z,75.83
2022-09-28T03:47:40.535Z,75.01
2022-09-28T03:50:09.425Z,75.64
2022-09-28T03:52:37.541Z,76.12
2022-09-28T03:55:06.092Z,76.57
2022-09-28T03:57:34.203Z,77.19
2022-09-28T04:00:02.718Z,77.04
2022-09-28T04:02:32.387Z,76.87
2022-09-28T04:05:00.467Z,78.73
2022-09-28T04:07:31.305Z,79.26
2022-09-28T04:10:00.288Z,79.29
2022-09-28T04:12:28.403Z,79.24
2022-09-28T04:14:56.635Z,79.87
2022-09-28T04:17:24.766Z,80.54
2022-09-28T04:19:54.784Z,80.98
2022-09-28T04:22:38.461Z,81.70
2022-09-28T04:25:07.526Z,81.65
2022-09-28T04:27:53.229Z,82.29
2022-09-28T04:30:22.071Z,81.62
2022-09-28T04:32:50.632Z,81.44
2022-09-28T04:35:20.548Z,81.46
2022-09-28T04:37:49.018Z,81.88
2022-09-28T04:40:17.458Z,82.34
2022-09-28T04:42:45.672Z,81.72
2022-09-28T04:45:15.511Z,80.35
2022-09-28T04:47:46.397Z,79.85
2022-09-28T04:50:33.226Z,80.20
2022-09-28T04:53:07.881Z,77.57
2022-09-28T04:55:36.141Z,77.16
2022-09-28T04:58:05.384Z,76.88
2022-09-28T05:00:35.298Z,77.20
2022-09-28T05:03:13.455Z,77.49
2022-09-28T05:06:01.810Z,77.79
2022-09-28T05:08:42.717Z,78.50
2022-09-28T05:11:13.539Z,78.78
2022-09-28T05:13:43.160Z,79.38
2022-09-28T05:16:11.872Z,79.86
2022-09-28T05:19:00.617Z,80.10
2022-09-28T05:21:32.902Z,80.57
2022-09-28T05:24:00.994Z,80.39
2022-09-28T05:26:29.227Z,80.39
2022-09-28T05:28:57.778Z,80.54
2022-09-28T05:31:54.160Z,79.53
2022-09-28T05:34:42.591Z,81.03
2022-09-28T05:37:17.597Z,82.84
2022-09-28T05:39:48.150Z,83.50
2022-09-28T05:42:16.691Z,84.03
2022-09-28T05:44:44.803Z,84.35
2022-09-28T05:47:13.927Z,84.35
2022-09-28T05:49:42.694Z,83.78
2022-09-28T05:52:16.706Z,84.42
2022-09-28T05:54:45.002Z,83.21
2022-09-28T05:57:13.237Z,83.22
2022-09-28T05:59:41.354Z,83.38
2022-09-28T06:02:11.986Z,82.67
2022-09-28T06:04:40.287Z,83.05
2022-09-28T06:07:08.438Z,83.21
2022-09-28T06:09:38.145Z,83.82
2022-09-28T06:12:38.510Z,85.25
2022-09-28T06:15:13.282Z,83.99
2022-09-28T06:17:41.650Z,84.04
2022-09-28T06:20:38.526Z,85.05
2022-09-28T06:23:14.847Z,84.09
2022-09-28T06:25:44.494Z,83.69
2022-09-28T06:28:14.215Z,81.81
2022-09-28T06:30:43.856Z,82.36
2022-09-28T06:33:16.607Z,84.33
2022-09-28T06:35:44.748Z,84.95
2022-09-28T06:38:13.001Z,84.27
2022-09-28T06:40:41.353Z,82.43
2022-09-28T06:43:17.096Z,80.75
2022-09-28T06:46:04.575Z,80.19
2022-09-28T06:48:33.590Z,80.13
2022-09-28T06:51:02.768Z,81.22
2022-09-28T06:53:56.626Z,81.55
2022-09-28T06:56:47.427Z,79.31
2022-09-28T06:59:17.136Z,79.98
2022-09-28T07:01:45.356Z,78.05
2022-09-28T07:04:43.607Z,79.08
2022-09-28T07:07:34.764Z,76.60
2022-09-28T07:10:22.228Z,78.41
2022-09-28T07:13:43.208Z,79.41
2022-09-28T07:16:10.148Z,77.42
2022-09-28T07:18:38.466Z,80.27
2022-09-28T07:21:09.297Z,78.98
2022-09-28T07:23:51.576Z,79.70
2022-09-28T07:26:24.805Z,78.32
2022-09-28T07:29:00.477Z,77.77
2022-09-28T07:32:03.347Z,75.82
2022-09-28T07:34:31.582Z,76.42
2022-09-28T07:37:07.181Z,74.36
2022-09-28T07:39:56.705Z,75.18
2022-09-28T07:42:24.708Z,77.81
2022-09-28T07:44:53.084Z,77.08
2022-09-28T07:47:30.794Z,77.51
2022-09-28T07:50:22.850Z,75.70
2022-09-28T07:53:12.385Z,77.66
2022-09-28T07:56:12.078Z,73.64
2022-09-28T07:58:50.134Z,72.31
2022-09-28T08:01:44.790Z,74.18
2022-09-28T08:04:17.043Z,71.38
2022-09-28T08:06:48.471Z,71.97
2022-09-28T08:09:17.001Z,71.20
2022-09-28T08:12:05.326Z,72.11
2022-09-28T08:14:46.962Z,71.56
2022-09-28T08:17:33.687Z,70.24
2022-09-28T08:20:27.023Z,71.92
2022-09-28T08:22:55.140Z,70.25
2022-09-28T08:25:27.023Z,70.27
2022-09-28T08:27:57.334Z,69.87
2022-09-28T08:30:27.638Z,69.85
2022-09-28T08:33:28.353Z,69.10
2022-09-28T08:36:16.407Z,69.73
2022-09-28T08:39:02.577Z,70.66
2022-09-28T08:41:40.679Z,68.59
2022-09-28T08:44:24.351Z,68.77
2022-09-28T08:47:38.429Z,70.36
2022-09-28T08:50:30.511Z,67.55
2022-09-28T08:53:35.562Z,67.65
2022-09-28T08:56:25.640Z,68.64
2022-09-28T08:58:58.405Z,68.13
2022-09-28T09:01:32.677Z,66.84
2022-09-28T09:04:04.216Z,67.13
2022-09-28T09:07:07.155Z,68.82
2022-09-28T09:09:55.738Z,67.43
2022-09-28T09:12:37.198Z,67.31
2022-09-28T09:15:33.727Z,66.88
2022-09-28T09:18:20.237Z,70.15
2022-09-28T09:21:17.542Z,67.98
2022-09-28T09:23:56.156Z,68.01
2022-09-28T09:26:37.241Z,66.44
2022-09-28T09:29:23.164Z,66.14
2022-09-28T09:32:16.385Z,66.48
2022-09-28T09:35:07.848Z,67.46
2022-09-28T09:38:06.709Z,67.67
2022-09-28T09:44:39.047Z,66.42
2022-09-28T09:47:43.094Z,67.47
2022-09-28T09:50:30.968Z,70.31
2022-09-28T09:53:06.181Z,67.73
2022-09-28T09:55:41.949Z,66.05
2022-09-28T09:58:30.593Z,65.34
2022-09-28T10:01:14.578Z,66.20
2022-09-28T10:04:03.571Z,68.70
2022-09-28T10:06:35.277Z,66.27
2022-09-28T10:09:05.972Z,67.02
2022-09-28T10:11:39.259Z,66.13
2022-09-28T10:14:14.960Z,67.91
2022-09-28T10:16:50.153Z,63.62
2022-09-28T10:19:38.220Z,62.51
2022-09-28T10:22:29.111Z,59.63
2022-09-28T10:25:01.054Z,59.22
2022-09-28T10:27:32.908Z,61.42
2022-09-28T10:30:05.138Z,64.21
2022-09-28T10:32:41.133Z,67.45
2022-09-28T10:35:24.458Z,66.76
2022-09-28T10:38:01.843Z,65.80
2022-09-28T10:40:59.589Z,66.48
2022-09-28T10:44:07.455Z,65.58
2022-09-28T10:47:01.666Z,67.50
2022-09-28T10:49:45.846Z,61.13
2022-09-28T10:52:39.970Z,62.19
2022-09-28T10:55:32.402Z,63.61
2022-09-28T10:58:01.911Z,67.79
2022-09-28T11:00:42.877Z,64.06
2022-09-28T11:03:22.439Z,63.38
2022-09-28T11:06:08.013Z,64.24
2022-09-28T11:08:42.911Z,63.23
2022-09-28T11:11:19.508Z,66.00
2022-09-28T11:13:54.717Z,67.19
2022-09-28T11:16:30.549Z,62.78
2022-09-28T11:19:06.216Z,62.88
2022-09-28T11:21:46.043Z,62.50
2022-09-28T11:24:24.521Z,65.73
2022-09-28T11:26:57.671Z,66.20
2022-09-28T11:29:38.327Z,61.30
2022-09-28T11:32:46.905Z,60.92
2022-09-28T11:35:24.146Z,58.82
2022-09-28T11:38:07.672Z,61.90
2022-09-28T11:41:18.555Z,65.87
2022-09-28T11:44:05.222Z,64.02
2022-09-28T11:46:40.491Z,62.13
2022-09-28T11:49:27.756Z,60.99
2022-09-28T11:52:02.458Z,63.72
2022-09-28T11:54:38.618Z,62.32
2022-09-28T11:57:13.225Z,61.09
2022-09-28T11:59:49.270Z,61.99
2022-09-28T12:02:23.072Z,60.54
2022-09-28T12:05:00.023Z,63.04
2022-09-28T12:07:32.718Z,63.01
2022-09-28T12:10:16.515Z,61.46
2022-09-28T12:12:49.681Z,63.66
2022-09-28T12:15:22.539Z,62.14
2022-09-28T12:17:55.528Z,61.72
2022-09-28T12:20:28.398Z,61.32
2022-09-28T12:23:06.170Z,62.90
2022-09-28T12:25:46.326Z,61.97
2022-09-28T12:28:21.763Z,62.74
2022-09-28T12:30:51.293Z,61.68
2022-09-28T12:33:19.487Z,61.41
2022-09-28T12:36:02.690Z,61.08
2022-09-28T12:38:50.852Z,62.16
2022-09-28T12:41:39.919Z,61.08
2022-09-28T12:44:24.585Z,61.82
2022-09-28T12:47:10.828Z,64.41
2022-09-28T12:50:37.641Z,62.80
2022-09-28T12:52:57.008Z,63.40
2022-09-28T12:55:37.969Z,64.35
2022-09-28T12:58:30.650Z,62.75
2022-09-28T13:01:13.939Z,65.45
2022-09-28T13:04:06.899Z,65.01
2022-09-28T13:06:50.336Z,65.83
2022-09-28T13:09:22.539Z,65.97
2022-09-28T13:12:07.242Z,65.55
2022-09-28T13:15:14.121Z,65.24
2022-09-28T13:17:53.658Z,64.57
2022-09-28T13:20:36.724Z,65.49
2022-09-28T13:23:21.491Z,63.97
2022-09-28T13:25:55.743Z,62.44
2022-09-28T13:28:27.407Z,64.95
2022-09-28T13:33:36.816Z,65.35
2022-09-28T13:36:05.819Z,64.27
2022-09-28T13:38:55.808Z,65.77
2022-09-28T13:41:33.098Z,64.47
2022-09-28T13:44:29.691Z,65.37
2022-09-28T13:47:03.530Z,66.65
2022-09-28T13:49:41.590Z,66.03
2022-09-28T13:52:14.575Z,64.56
2022-09-28T13:55:02.361Z,65.18
2022-09-28T13:57:37.527Z,64.53
2022-09-28T14:00:27.547Z,64.25
2022-09-28T14:03:01.722Z,64.07
2022-09-28T14:06:05.771Z,64.86
2022-09-28T14:08:40.412Z,65.93
2022-09-28T14:11:44.096Z,65.99
2022-09-28T14:14:30.720Z,65.34
2022-09-28T14:17:50.198Z,66.06
2022-09-28T14:20:20.385Z,64.67
2022-09-28T14:23:19.204Z,65.73
2022-09-28T14:26:04.218Z,65.64
2022-09-28T14:28:45.401Z,66.31
2022-09-28T14:31:27.465Z,66.97
2022-09-28T14:33:59.176Z,66.07
2022-09-28T14:36:47.794Z,67.74
2022-09-28T14:39:45.153Z,67.48
2022-09-28T14:42:16.864Z,66.74
2022-09-28T14:45:35.059Z,68.00
2022-09-28T14:48:15.306Z,68.26
2022-09-28T14:50:44.554Z,68.38
2022-09-28T14:53:14.887Z,67.30
2022-09-28T14:55:55.035Z,68.67
2022-09-28T14:58:31.415Z,68.91
2022-09-28T15:01:04.282Z,67.46
2022-09-28T15:03:42.743Z,68.39
2022-09-28T15:06:16.256Z,69.32
2022-09-28T15:08:44.509Z,69.98
2022-09-28T15:11:21.353Z,68.97
2022-09-28T15:13:53.399Z,68.52
2022-09-28T15:16:25.578Z,69.37
2022-09-28T15:19:18.930Z,67.68
2022-09-28T15:21:48.867Z,68.85
2022-09-28T15:24:29.176Z,68.80
2022-09-28T15:27:19.233Z,70.43
2022-09-28T15:29:57.659Z,70.28
2022-09-28T15:32:26.571Z,69.05
2022-09-28T15:34:54.896Z,69.64
2022-09-28T15:37:25.514Z,68.32
2022-09-28T15:39:56.560Z,68.77
2022-09-28T15:42:26.784Z,67.51
2022-09-28T15:45:26.868Z,67.63
2022-09-28T15:48:16.046Z,68.73
2022-09-28T15:51:01.457Z,68.68
2022-09-28T15:53:31.556Z,68.51
2022-09-28T15:56:10.173Z,68.76
2022-09-28T15:58:40.753Z,68.25
2022-09-28T16:01:36.415Z,69.05
2022-09-28T16:04:40.080Z,69.51
2022-09-28T16:07:32.139Z,69.10
2022-09-28T16:10:17.076Z,69.38
2022-09-28T16:12:48.686Z,69.33
2022-09-28T16:15:22.448Z,70.24
2022-09-28T16:17:53.019Z,69.26
2022-09-28T16:20:29.707Z,69.85
2022-09-28T16:23:05.711Z,70.10
2022-09-28T16:25:37.289Z,70.04
2022-09-28T16:28:06.700Z,70.15
2022-09-28T16:30:41.931Z,70.36
2022-09-28T16:33:29.180Z,71.53
2022-09-28T16:36:07.015Z,70.83
2022-09-28T16:38:37.601Z,71.62
2022-09-28T16:41:07.318Z,71.42
2022-09-28T16:43:36.835Z,71.33
2022-09-28T16:46:10.470Z,71.63
2022-09-28T16:48:45.888Z,71.19
2022-09-28T16:51:14.191Z,71.10
2022-09-28T16:54:00.120Z,70.59
2022-09-28T16:56:29.138Z,70.84
2022-09-28T16:58:57.885Z,71.65
2022-09-28T17:01:28.095Z,72.49
2022-09-28T17:03:56.340Z,71.75
2022-09-28T17:06:26.059Z,72.05
2022-09-28T17:08:56.808Z,72.54
2022-09-28T17:11:25.361Z,72.52
2022-09-28T17:13:59.094Z,71.95
2022-09-28T17:16:57.657Z,72.44
2022-09-28T17:19:23.335Z,71.24
2022-09-28T17:21:52.462Z,72.25
2022-09-28T17:24:21.678Z,71.82
2022-09-28T17:26:52.004Z,71.35
2022-09-28T17:29:20.805Z,72.51
2022-09-28T17:31:50.432Z,72.87
2022-09-28T17:34:19.988Z,71.96
2022-09-28T17:36:52.975Z,73.47
2022-09-28T17:39:21.339Z,73.91
2022-09-28T17:41:49.447Z,71.81
2022-09-28T17:44:19.049Z,71.39
2022-09-28T17:46:49.670Z,71.48
2022-09-28T17:49:19.533Z,72.20
2022-09-28T17:51:47.925Z,72.80
2022-09-28T17:54:19.996Z,74.02
2022-09-28T17:56:52.486Z,73.81
2022-09-28T17:59:22.022Z,75.23
2022-09-28T18:01:50.185Z,76.66
2022-09-28T18:04:47.165Z,77.52
2022-09-28T18:07:10.426Z,78.21
2022-09-28T18:09:38.654Z,79.34
2022-09-28T18:12:08.998Z,79.21
2022-09-28T18:14:41.226Z,79.86
2022-09-28T18:17:33.197Z,79.11
2022-09-28T18:20:14.401Z,80.34
2022-09-28T18:22:44.601Z,81.08
2022-09-28T18:25:12.931Z,81.93
2022-09-28T18:27:41.427Z,82.14
2022-09-28T18:30:10.486Z,83.57
2022-09-28T18:32:39.218Z,82.90
2022-09-28T18:35:13.380Z,83.18
2022-09-28T18:37:42.026Z,82.84
2022-09-28T18:40:12.882Z,83.85
2022-09-28T18:42:41.741Z,84.88
2022-09-28T18:45:12.295Z,83.66
2022-09-28T18:47:41.355Z,82.87
2022-09-28T18:50:13.121Z,83.02
2022-09-28T18:52:41.813Z,83.08
2022-09-28T18:55:11.244Z,84.20
2022-09-28T18:57:41.477Z,83.44
2022-09-28T19:00:12.644Z,82.95
2022-09-28T19:02:41.008Z,84.78
2022-09-28T19:05:11.121Z,84.96
2022-09-28T19:07:39.255Z,85.64
2022-09-28T19:10:08.722Z,85.88
2022-09-28T19:12:42.843Z,86.07
2022-09-28T19:15:11.123Z,85.89
2022-09-28T19:17:43.788Z,86.92
2022-09-28T19:20:15.485Z,85.56
2022-09-28T19:22:44.641Z,85.64
2022-09-28T19:25:13.403Z,85.78
2022-09-28T19:27:43.917Z,84.96
2022-09-28T19:30:13.268Z,84.12
2022-09-28T19:32:42.572Z,84.51
2022-09-28T19:35:11.231Z,84.57
2022-09-28T19:37:48.976Z,84.66
2022-09-28T19:40:17.174Z,85.00
2022-09-28T19:42:45.744Z,85.54
2022-09-28T19:45:14.004Z,85.30
2022-09-28T19:47:43.343Z,85.00
2022-09-28T19:50:11.469Z,85.75
2022-09-28T19:52:39.939Z,85.07
2022-09-28T19:55:10.275Z,85.38
2022-09-28T19:57:38.558Z,85.38
2022-09-28T20:00:08.173Z,85.36
2022-09-28T20:02:36.395Z,85.47
2022-09-28T20:05:05.284Z,86.15
2022-09-28T20:07:34.912Z,85.58
2022-09-28T20:10:03.540Z,85.17
2022-09-28T20:12:33.301Z,84.95
2022-09-28T20:15:01.650Z,85.10
2022-09-28T20:17:29.805Z,85.20
2022-09-28T20:19:58.681Z,86.14
2022-09-28T20:22:26.907Z,85.90
2022-09-28T20:24:55.234Z,85.50
2022-09-28T20:27:26.485Z,85.31
2022-09-28T20:29:56.230Z,86.31
2022-09-28T20:32:24.320Z,86.11
2022-09-28T20:34:52.475Z,86.41
2022-09-28T20:37:20.622Z,87.25
2022-09-28T20:39:49.002Z,87.83
2022-09-28T20:42:17.026Z,87.91
2022-09-28T20:44:45.390Z,88.18
2022-09-28T20:47:15.102Z,87.95
2022-09-28T20:49:44.561Z,89.23
2022-09-28T20:52:12.852Z,88.70
2022-09-28T20:54:40.810Z,88.52
2022-09-28T20:57:17.750Z,88.29
2022-09-28T20:59:48.754Z,87.87
2022-09-28T21:02:20.551Z,87.47
2022-09-28T21:04:48.699Z,87.18
2022-09-28T21:07:16.948Z,86.82
2022-09-28T21:09:44.976Z,87.19
2022-09-28T21:12:14.499Z,87.66
2022-09-28T21:14:42.526Z,87.72
2022-09-28T21:17:10.642Z,87.87
2022-09-28T21:19:40.280Z,88.51
2022-09-28T21:22:08.345Z,88.59
2022-09-28T21:24:37.075Z,89.72
2022-09-28T21:27:05.324Z,89.08
2022-09-28T21:29:33.391Z,88.66
2022-09-28T21:32:01.556Z,89.39
2022-09-28T21:34:29.677Z,89.21
2022-09-28T21:36:59.230Z,88.44
2022-09-28T21:39:29.295Z,87.78
2022-09-28T21:41:57.367Z,88.55
2022-09-28T21:44:25.353Z,88.12
2022-09-28T21:46:53.517Z,88.37
2022-09-28T21:49:21.513Z,87.81
2022-09-28T21:51:49.631Z,87.96
2022-09-28T21:54:19.171Z,88.07
2022-09-28T21:56:47.191Z,89.11
2022-09-28T21:59:15.317Z,88.95
2022-09-28T22:01:44.374Z,88.75
2022-09-28T22:04:12.651Z,88.65
2022-09-28T22:06:40.982Z,88.83
2022-09-28T22:09:09.143Z,88.19
2022-09-28T22:11:38.583Z,88.17
2022-09-28T22:14:06.684Z,88.80
2022-09-28T22:16:34.684Z,89.17
2022-09-28T22:19:04.964Z,88.77
2022-09-28T22:21:35.119Z,88.06
2022-09-28T22:24:05.573Z,88.21
2022-09-28T22:26:35.231Z,87.95
2022-09-28T22:29:06.767Z,88.54
2022-09-28T22:31:36.296Z,88.31
2022-09-28T22:34:05.350Z,88.15
2022-09-28T22:36:33.841Z,88.64
2022-09-28T22:39:02.027Z,89.31
2022-09-28T22:41:30.241Z,88.44
2022-09-28T22:43:59.129Z,88.25
2022-09-28T22:46:32.049Z,88.80
2022-09-28T22:49:00.612Z,88.44
2022-09-28T22:51:30.295Z,87.22
2022-09-28T22:53:58.686Z,86.85
2022-09-28T22:56:26.759Z,86.97
2022-09-28T22:58:55.307Z,87.12
2022-09-28T23:01:24.487Z,87.50
2022-09-28T23:03:59.453Z,87.87
2022-09-28T23:06:29.126Z,87.89
2022-09-28T23:08:57.563Z,87.91
2022-09-28T23:11:25.836Z,87.99
2022-09-28T23:13:55.507Z,88.10
2022-09-28T23:16:25.774Z,87.96
2022-09-28T23:18:55.126Z,88.00
2022-09-28T23:21:26.360Z,88.36
2022-09-28T23:23:56.394Z,87.98
2022-09-28T23:26:26.667Z,88.40
2022-09-28T23:28:55.458Z,88.37
2022-09-28T23:31:24.910Z,89.24
2022-09-28T23:33:53.394Z,89.05
2022-09-28T23:36:21.478Z,88.93
2022-09-28T23:38:50.885Z,88.71
2022-09-28T23:41:19.133Z,89.47
2022-09-28T23:43:47.263Z,90.64
2022-09-28T23:46:20.295Z,89.90
2022-09-28T23:48:49.186Z,89.69
2022-09-28T23:51:17.261Z,90.83
2022-09-28T23:53:45.341Z,90.54
2022-09-28T23:56:15.093Z,90.12
2022-09-28T23:58:43.226Z,91.11
